Flight Track Log - Related Links

Times and Time Zones

All times are in EDT time to prevent confusion due to time zone crossing. See the SWA1086 flight status page for this flight to view local times or setup timezone preferences in your user account.

Time Position Orientation Groundspeed Altitude Reporting Facility
EDT Latitude Longitude Course Direction KTS MPH feet Rate Location/Type
Fri 08:56:33 PM 39.9500 -104.6500 27° Northeast 196 226 8,600  Level Denver TRACON
Fri 08:57:33 PM 40.0000 -104.5833 46° Northeast 253 291 11,300 2,400 Climbing Denver TRACON
Fri 08:59:58 PM 39.9694 -104.3003 98° East 410 472 16,800 2,464 Climbing Denver Center
Fri 09:01:00 PM 39.9909 -103.6386 84° East  Level Estimated
Fri 09:01:00 PM 39.9692 -104.1328 90° East 431 496 19,800  Level Denver Center
Fri 09:02:01 PM 39.9892 -103.9756 81° East 443 510 21,900 2,244 Climbing Denver Center
Fri 09:03:03 PM 40.0114 -103.7906 81° East 476 548 24,400 1,984 Climbing Denver Center
Fri 09:04:05 PM 40.0303 -103.6411 81° East 478 550 26,000 2,177 Climbing Denver Center
Fri 09:05:07 PM 40.0575 -103.4278 80° East 497 572 28,900 2,585 Climbing Denver Center
Fri 09:06:08 PM 40.0811 -103.2492 80° East 499 574 31,300 2,195 Climbing Denver Center
Fri 09:07:10 PM 40.1011 -103.0719 82° East 495 570 33,400 1,645 Climbing Denver Center
Fri 09:08:12 PM 40.1242 -102.8953 80° East 495 570 34,700 1,306 Climbing Denver Center
Fri 09:09:14 PM 40.1447 -102.7139 82° East 504 580 36,100 1,258 Climbing Denver Center
Fri 09:10:16 PM 40.1669 -102.5294 81° East 506 582 37,300 1,268 Climbing Denver Center
Fri 09:11:17 PM 40.1914 -102.3250 81° East 511 588 38,700 1,463 Climbing Denver Center
Fri 09:12:19 PM 40.2092 -102.1506 82° East 508 585 40,300 1,113 Climbing Denver Center
Fri 09:13:21 PM 40.2336 -101.9508 81° East 500 575 41,000 339 Climbing Denver Center
Fri 09:14:23 PM 40.2525 -101.7758 82° East 506 582 41,000  Level Denver Center
Fri 09:15:25 PM 40.2742 -101.5733 82° East 506 582 41,000  Level Denver Center
Fri 09:16:27 PM 40.2942 -101.3989 81° East 508 585 41,000  Level Denver Center
Fri 09:17:29 PM 40.3144 -101.1950 83° East 507 583 41,000  Level Denver Center
Fri 09:18:30 PM 40.3322 -101.0214 82° East 507 583 41,000  Level Denver Center
Fri 09:20:00 PM 40.3623 -100.7671 81° East  Level FlightAware Approximate
Fri 09:20:34 PM 40.3708 -100.6469 81° East 503 579 41,000  Level Denver Center
Fri 09:21:36 PM 40.3908 -100.4464 82° East 501 577 41,000  Level Denver Center
Fri 09:22:38 PM 40.4072 -100.2756 83° East 498 573 41,000  Level Denver Center
Fri 09:23:40 PM 40.4272 -100.0739 83° East 501 577 41,000  Level Denver Center
Fri 09:24:42 PM 40.4439 -99.8997 83° East 503 579 41,000  Level Denver Center
Fri 09:25:44 PM 40.4619 -99.7011 83° East 508 585 41,000  Level Denver Center
Fri 09:26:46 PM 40.4789 -99.5158 83° East 511 588 41,000  Level Denver Center
Fri 09:27:48 PM 40.4956 -99.3319 83° East 509 586 41,000  Level Denver Center
Fri 09:28:50 PM 40.5117 -99.1494 83° East 506 582 41,000  Level Denver Center
Fri 09:29:37 PM 40.5239 -99.0031 84° East 509 586 41,000  Level Minneapolis Center
Fri 09:30:39 PM 40.5397 -98.8178 84° East 512 589 41,000  Level Minneapolis Center
Fri 09:31:40 PM 40.5572 -98.5947 84° East 514 592 41,000  Level Minneapolis Center
Fri 09:32:42 PM 40.5728 -98.4086 84° East 516 594 41,000  Level Minneapolis Center
Fri 09:33:43 PM 40.5875 -98.2219 84° East 517 595 41,000  Level Minneapolis Center
Fri 09:34:45 PM 40.6019 -98.0350 84° East 517 595 41,000  Level Minneapolis Center
Fri 09:35:46 PM 40.6150 -97.8497 85° East 512 589 41,000  Level Minneapolis Center
Fri 09:36:47 PM 40.6300 -97.6642 84° East 511 588 41,000  Level Minneapolis Center
Fri 09:37:49 PM 40.6422 -97.4783 85° East 511 588 41,000  Level Minneapolis Center
Fri 09:38:51 PM 40.6572 -97.2644 85° East 514 592 41,000  Level Minneapolis Center
Fri 09:39:52 PM 40.6711 -97.0783 84° East 514 592 41,000  Level Minneapolis Center
Fri 09:40:53 PM 40.6842 -96.8908 85° East 516 594 41,000  Level Minneapolis Center
Fri 09:41:55 PM 40.6958 -96.7036 85° East 515 593 41,000  Level Minneapolis Center
Fri 09:42:56 PM 40.7089 -96.5172 85° East 514 592 41,000  Level Minneapolis Center
Fri 09:43:57 PM 40.7200 -96.3306 85° East 514 592 41,000  Level Minneapolis Center
Fri 09:44:59 PM 40.7311 -96.1489 85° East 507 583 41,000  Level Minneapolis Center
Fri 09:46:00 PM 40.7447 -95.9281 85° East 507 583 41,000  Level Minneapolis Center
Fri 09:47:01 PM 40.7556 -95.7450 85° East 506 582 41,000  Level Minneapolis Center
Fri 09:48:03 PM 40.7639 -95.5639 86° East 502 578 41,000  Level Minneapolis Center
Fri 09:49:04 PM 40.7758 -95.3769 85° East 512 589 41,000  Level Minneapolis Center
Fri 09:50:05 PM 40.7861 -95.1933 86° East 508 585 41,000  Level Minneapolis Center
Fri 09:51:07 PM 40.7942 -95.0097 87° East 505 581 41,000  Level Minneapolis Center
Fri 09:52:08 PM 40.8039 -94.8264 86° East 504 580 41,000  Level Minneapolis Center
Fri 09:53:09 PM 40.8128 -94.6456 86° East 499 574 41,000  Level Minneapolis Center
Fri 09:55:11 PM 40.8303 -94.2608 86° East 498 573 41,000  Level Minneapolis Center
Fri 09:56:13 PM 40.8350 -94.0783 88° East 501 577 41,000  Level Minneapolis Center
Fri 09:57:14 PM 40.8442 -93.8933 86° East 505 581 41,000  Level Minneapolis Center
Fri 09:58:15 PM 40.8511 -93.7081 87° East 507 583 41,000  Level Minneapolis Center
Fri 09:59:17 PM 40.8608 -93.4839 87° East 511 588 41,000  Level Minneapolis Center
Fri 10:00:19 PM 40.8675 -93.2950 87° East 515 593 41,000  Level Minneapolis Center
Fri 10:01:10 PM 40.8733 -93.1444 87° East 510 587 41,000  Level Chicago Center
Fri 10:02:11 PM 40.8806 -92.9581 87° East 507 583 41,000  Level Chicago Center
Fri 10:03:12 PM 40.8858 -92.7708 88° East 511 588 41,000  Level Chicago Center
Fri 10:04:13 PM 40.8919 -92.5844 87° East 509 586 41,000  Level Chicago Center
Fri 10:05:15 PM 40.8967 -92.3950 88° East 514 592 41,000  Level Chicago Center
Fri 10:06:16 PM 40.9014 -92.2064 88° East 515 593 41,000  Level Chicago Center
Fri 10:08:28 PM 40.9117 -91.7892 88° East 519 597 41,000  Level Minneapolis Center
Fri 10:09:19 PM 40.9161 -91.6003 88° East 519 597 41,000  Level Chicago Center
Fri 10:10:21 PM 40.9194 -91.4106 89° East 518 596 41,000  Level Chicago Center
Fri 10:11:22 PM 40.9239 -91.2183 88° East 522 601 41,000  Level Chicago Center
Fri 10:12:23 PM 40.9261 -91.0269 89° East 522 601 41,000  Level Chicago Center
Fri 10:13:24 PM 40.9278 -90.8350 89° East 522 601 41,000  Level Chicago Center
Fri 10:14:25 PM 40.9311 -90.6439 89° East 520 598 41,000  Level Chicago Center
Fri 10:15:26 PM 40.9336 -90.4511 89° East 522 601 41,000  Level Chicago Center
Fri 10:16:27 PM 40.9361 -90.2419 89° East 521 600 41,000  Level Chicago Center
Fri 10:17:29 PM 40.9386 -90.0519 89° East 522 601 41,000  Level Chicago Center
Fri 10:18:30 PM 40.9400 -89.8597 89° East 525 604 41,000  Level Chicago Center
Fri 10:19:31 PM 40.9397 -89.6694 90° East 522 601 41,000  Level Chicago Center
Fri 10:20:32 PM 40.9414 -89.4806 89° East 522 601 41,000  Level Chicago Center
Fri 10:21:33 PM 40.9422 -89.2858 90° East 526 605 41,000  Level Chicago Center
Fri 10:22:34 PM 40.9417 -89.0942 90° East 522 601 41,000  Level Chicago Center
Fri 10:23:36 PM 40.9408 -88.9033 90° East 520 598 41,000  Level Chicago Center
Fri 10:24:37 PM 40.9389 -88.6794 91° East 520 598 41,000  Level Chicago Center
Fri 10:25:38 PM 40.9383 -88.4894 90° East 523 602 41,000  Level Chicago Center
Fri 10:26:39 PM 40.9372 -88.3006 90° East 520 598 41,000  Level Chicago Center
Fri 10:27:40 PM 40.9356 -88.1119 91° East 521 600 41,000  Level Chicago Center
Fri 10:28:41 PM 40.9347 -87.9222 90° East 523 602 41,000  Level Chicago Center
Fri 10:29:43 PM 40.9319 -87.6964 91° East 520 598 41,000  Level Chicago Center
Fri 10:30:44 PM 40.9297 -87.5086 91° East 517 595 41,000  Level Chicago Center
Fri 10:31:45 PM 40.9269 -87.3225 91° East 510 587 41,000  Level Chicago Center
Fri 10:32:46 PM 40.9236 -87.1356 91° East 513 590 41,000  Level Chicago Center
Fri 10:33:47 PM 40.9211 -86.9481 91° East 514 592 41,000  Level Chicago Center
Fri 10:34:48 PM 40.9161 -86.7619 92° East 512 589 41,000  Level Chicago Center
Fri 10:35:49 PM 40.9122 -86.5531 91° East 515 593 41,000  Level Chicago Center
Fri 10:36:51 PM 40.9083 -86.3661 92° East 513 590 41,000  Level Chicago Center
Fri 10:37:52 PM 40.9028 -86.1789 92° East 513 590 41,000  Level Chicago Center
Fri 10:38:53 PM 40.8969 -85.9911 92° East 515 593 41,000  Level Chicago Center
Fri 10:39:54 PM 40.8914 -85.8044 92° East 513 590 41,000  Level Chicago Center
Fri 10:40:55 PM 40.8867 -85.6175 92° East 513 590 41,000  Level Chicago Center
Fri 10:41:56 PM 40.8803 -85.4317 93° East 512 589 41,000  Level Chicago Center
Fri 10:42:57 PM 40.8719 -85.2050 93° East 520 598 41,000  Level Chicago Center
Fri 10:43:58 PM 40.8653 -85.0192 93° East 516 594 41,000  Level Chicago Center
Fri 10:45:24 PM 40.8558 -84.7614 93° East 507 583 41,000  Level Chicago Center
Fri 10:46:25 PM 40.8486 -84.5772 93° East 505 581 41,000  Level Chicago Center
Fri 10:47:26 PM 40.8414 -84.3931 93° East 505 581 41,000  Level Chicago Center
Fri 10:48:27 PM 40.8331 -84.2083 93° East 506 582 41,000  Level Chicago Center
Fri 10:49:28 PM 40.8253 -84.0256 93° East 503 579 41,000  Level Chicago Center
Fri 10:50:37 PM 40.8158 -83.8186 93° East 505 581 41,000  Level Indianapolis Center
Fri 10:51:38 PM 40.8069 -83.6339 94° East 504 580 41,000  Level Indianapolis Center
Fri 10:52:39 PM 40.7978 -83.4383 93° East 505 581 41,000  Level Indianapolis Center
Fri 10:53:40 PM 40.7883 -83.2533 94° East 504 580 41,000  Level Indianapolis Center
Fri 10:54:41 PM 40.7792 -83.0681 94° East 504 580 41,000  Level Indianapolis Center
Fri 10:55:42 PM 40.7669 -82.8508 94° East 505 581 41,000  Level Indianapolis Center
Fri 10:56:43 PM 40.7569 -82.6653 94° East 505 581 41,000  Level Indianapolis Center
Fri 10:57:44 PM 40.7450 -82.4783 95° East 507 583 41,000  Level Indianapolis Center
Fri 10:58:45 PM 40.7344 -82.2914 94° East 510 587 41,000  Level Indianapolis Center
Fri 10:59:44 PM 40.7222 -82.1039 95° East 509 586 41,000  Level Cleveland Center
Fri 11:00:45 PM 40.7106 -81.9172 95° East 509 586 41,000  Level Cleveland Center
Fri 11:01:46 PM 40.6992 -81.7300 95° East 512 589 41,000  Level Cleveland Center
Fri 11:02:46 PM 40.6869 -81.5425 95° East 512 589 41,000  Level Cleveland Center
Fri 11:03:47 PM 40.6744 -81.3542 95° East 514 592 41,000  Level Cleveland Center
Fri 11:04:48 PM 40.6614 -81.1658 95° East 513 590 41,000  Level Cleveland Center
Fri 11:05:49 PM 40.6456 -80.9661 96° East 513 590 41,000  Level Cleveland Center
Fri 11:06:50 PM 40.6303 -80.7783 96° East 515 593 41,000  Level Cleveland Center
Fri 11:07:51 PM 40.6150 -80.6006 96° East 512 589 41,000  Level Cleveland Center
Fri 11:08:52 PM 40.5981 -80.4131 97° East 512 589 41,000  Level Cleveland Center
Fri 11:09:53 PM 40.5825 -80.2325 96° East 515 593 41,000  Level Cleveland Center
Fri 11:10:54 PM 40.5644 -80.0486 97° East 512 589 41,000  Level Cleveland Center
Fri 11:11:55 PM 40.5450 -79.8369 97° East 512 589 41,000  Level Cleveland Center
Fri 11:12:55 PM 40.5272 -79.6506 97° East 513 590 41,000  Level Cleveland Center
Fri 11:13:56 PM 40.5089 -79.4642 97° East 513 590 41,000  Level Cleveland Center
Fri 11:14:57 PM 40.4908 -79.2750 97° East 514 592 41,000  Level Cleveland Center
Fri 11:15:58 PM 40.4725 -79.0908 97° East 516 594 41,000  Level Cleveland Center
Fri 11:16:59 PM 40.4531 -78.9050 98° East 518 596 41,000  Level Cleveland Center
Fri 11:17:59 PM 40.4333 -78.7186 98° East 521 600 41,000  Level Cleveland Center
Fri 11:19:00 PM 40.4139 -78.5317 98° East 522 601 41,000  Level Cleveland Center
Fri 11:20:01 PM 40.3944 -78.3461 98° East 521 600 41,000 -148 Level Cleveland Center
Fri 11:21:02 PM 40.3703 -78.1228 98° East 522 601 40,700 -590 Descending Cleveland Center
Fri 11:22:03 PM 40.3497 -77.9369 98° East 522 601 39,800 -874 Descending Cleveland Center
Fri 11:22:45 PM 40.3344 -77.8211 100° East 524 603 39,200 -882 Descending New York Center
Fri 11:23:45 PM 40.3144 -77.6311 98° East 524 603 38,300 -1,150 Descending New York Center
Fri 11:24:45 PM 40.2919 -77.4408 99° East 529 609 36,900 -1,900 Descending New York Center
Fri 11:25:45 PM 40.2650 -77.2506 100° East 529 609 34,500 -2,050 Descending New York Center
Fri 11:26:45 PM 40.2461 -77.0583 97° East 529 609 32,800 -2,800 Descending New York Center
Fri 11:27:45 PM 40.2208 -76.8631 100° East 529 609 28,900 -3,650 Descending New York Center
Fri 11:28:45 PM 40.1978 -76.6600 98° East 529 609 25,500 -3,100 Descending New York Center
Fri 11:29:45 PM 40.1753 -76.4814 99° East 517 595 22,700 -2,600 Descending New York Center
Fri 11:30:45 PM 40.1556 -76.3303 100° East 490 564 20,300 -2,800 Descending New York Center
Fri 11:31:45 PM 40.1347 -76.1494 99° East 464 534 17,100 -3,000 Descending New York Center
Fri 11:32:45 PM 40.1181 -76.0097 99° East 440 506 14,300 -2,600 Descending New York Center
Fri 11:33:45 PM 40.0969 -75.8725 101° East 404 465 11,900 -2,150 Descending New York Center
Fri 11:34:45 PM 40.0800 -75.7356 99° East 354 407 10,000 -950 Descending New York Center
Fri 11:35:45 PM 40.0700 -75.6236 97° East 349 402 10,000  Level New York Center
Fri 11:36:45 PM 40.0669 -75.4958 92° East 330 380 10,000 -600 Level New York Center
Fri 11:37:45 PM 40.0625 -75.3978 93° East 306 352 8,800 -1,500 Descending New York Center
Fri 11:38:45 PM 40.0586 -75.2811 92° East 293 337 7,000 -1,350 Descending New York Center
Fri 11:39:45 PM 40.0261 -75.2003 118° Southeast 274 315 6,100 -1,000 Descending New York Center
Fri 11:40:45 PM 39.9778 -75.1539 144° Southeast 225 259 5,000 -1,050 Descending New York Center
Fri 11:41:45 PM 39.9933 -75.0761 75° East 191 220 4,000 -500 Descending New York Center
Fri 11:42:45 PM 39.9786 -75.0239 110° East 156 180 4,000 -650 Level New York Center
Fri 11:43:45 PM 39.9283 -75.0261 182° South 142 163 2,700 -900 Descending New York Center
Fri 11:44:45 PM 39.9078 -75.0736 241° Southwest 119 137 2,200 -565 Descending New York Center
Fri 11:46:03 PM 39.9000 -75.1333 260° West 143 165 1,400 -636 Descending Philadelphia TRACON
Fri 11:46:57 PM 39.8833 -75.1833 247° West 119 137 800 -667 Descending Philadelphia TRACON
Fri 11:48:00 PM 39.8667 -75.2333 247° West  Level FlightAware Approximate
Fri 11:55:00 PM 39.8722 -75.2409 247° West  Level Estimated
Fri 11:56:00 PM 39.8722 -75.2409 247° West  Level Estimated

Login

Don't have an account? Register now (free) for customized features, flight alerts, and more!